Time;durP1;ratioP1;P1;durP2;ratioP2;P2;SDS_P1;SDS_P2;PMS_P1;PMS_P2;Temp;Humidity;BMP_temperature;BMP_pressure;BME280_temperature;BME280_humidity;BME280_pressure;Samples;Min_cycle;Max_cycle;Signal;HPM_P1;HPM_P2
2024/01/23 06:43:44;;;;;;;5.25;1.58;;;;;;;;;;10496793;28;20756;-80
2024/01/23 06:48:45;;;;;;;6.38;1.92;;;;;;;;;;10497056;28;20024;-81
2024/01/23 06:53:46;;;;;;;5.30;1.48;;;;;;;;;;10484076;22;20057;-84
2024/01/23 06:58:47;;;;;;;6.43;1.70;;;;;;;;;;10424852;28;20026;-84
2024/01/23 07:03:48;;;;;;;10.80;3.05;;;;;;;;;;10419842;28;20072;-84
2024/01/23 07:08:49;;;;;;;;;;;;;;;;;;10419112;28;20061;-83
2024/01/23 07:13:53;;;;;;;9.00;2.73;;;;;;;;;;10417616;28;20393;-82
2024/01/23 07:18:54;;;;;;;9.90;2.67;;;;;;;;;;10414802;28;20276;-82
2024/01/23 07:23:55;;;;;;;8.73;2.17;;;;;;;;;;10421036;28;20049;-82
2024/01/23 07:28:57;;;;;;;7.88;1.95;;;;;;;;;;10418808;28;20400;-83
2024/01/23 07:33:58;;;;;;;;;;;;;;;;;;10418916;28;20022;-83
2024/01/23 07:38:59;;;;;;;10.02;2.67;;;;;;;;;;10418605;28;19906;-82
2024/01/23 07:44:00;;;;;;;8.65;2.40;;;;;;;;;;10428565;28;20025;-83
2024/01/23 07:49:01;;;;;;;13.88;3.58;;;;;;;;;;10447883;28;20030;-82
2024/01/23 07:54:02;;;;;;;7.20;2.30;;;;;;;;;;10431246;28;20053;-84
2024/01/23 07:59:03;;;;;;;8.77;2.25;;;;;;;;;;10413055;28;20026;-79
2024/01/23 08:04:04;;;;;;;5.85;1.95;;;;;;;;;;10405120;28;20037;-77
2024/01/23 08:09:05;;;;;;;8.27;2.20;;;;;;;;;;10391038;28;20034;-79
2024/01/23 08:14:07;;;;;;;7.78;2.50;;;;;;;;;;10380370;28;20045;-77
2024/01/23 08:19:08;;;;;;;9.27;2.70;;;;;;;;;;10379530;28;20068;-77
2024/01/23 08:24:09;;;;;;;10.80;2.70;;;;;;;;;;10378989;28;20121;-77
2024/01/23 08:29:10;;;;;;;10.15;2.88;;;;;;;;;;10379170;28;20188;-77
2024/01/23 08:34:11;;;;;;;9.88;3.53;;;;;;;;;;10381261;28;20026;-78
2024/01/23 08:39:12;;;;;;;10.68;3.60;;;;;;;;;;10388189;28;20453;-82
2024/01/23 08:44:13;;;;;;;12.43;3.40;;;;;;;;;;10388871;28;20084;-81
2024/01/23 08:49:17;;;;;;;;;;;;;;;;;;10388588;28;20026;-81
2024/01/23 08:54:19;;;;;;;8.98;3.65;;;;;;;;;;10387298;28;19959;-82
2024/01/23 08:59:20;;;;;;;;;;;;;;;;;;10387020;28;20079;-83
2024/01/23 09:04:21;;;;;;;7.60;2.53;;;;;;;;;;10393521;28;19955;-82
2024/01/23 09:09:42;;;;;;;9.02;3.40;;;;;;;;;;10390282;28;20109;-83
2024/01/23 09:14:44;;;;;;;8.48;3.03;;;;;;;;;;10389695;28;20014;-82
2024/01/23 09:19:45;;;;;;;8.65;2.67;;;;;;;;;;10387976;28;20021;-82
2024/01/23 09:24:46;;;;;;;10.68;3.08;;;;;;;;;;10385923;28;20026;-83
2024/01/23 09:29:47;;;;;;;10.05;2.70;;;;;;;;;;10383506;28;20030;-79
2024/01/23 09:34:49;;;;;;;8.30;3.30;;;;;;;;;;10381336;28;20153;-80
2024/01/23 09:39:52;;;;;;;9.25;3.10;;;;;;;;;;10378542;28;20034;-79
2024/01/23 09:44:55;;;;;;;12.88;5.28;;;;;;;;;;10378333;28;20030;-79
2024/01/23 09:49:57;;;;;;;12.60;3.50;;;;;;;;;;10380584;28;20029;-79
2024/01/23 09:54:58;;;;;;;8.57;2.83;;;;;;;;;;10377831;28;20037;-79
2024/01/23 10:00:06;;;;;;;10.75;3.03;;;;;;;;;;10379069;28;20026;-79
2024/01/23 10:05:11;;;;;;;7.53;3.05;;;;;;;;;;10379540;28;20034;-80
2024/01/23 10:10:17;;;;;;;8.93;3.15;;;;;;;;;;10377848;28;20033;-78
2024/01/23 10:15:21;;;;;;;9.65;3.10;;;;;;;;;;10378453;28;20462;-80
2024/01/23 10:20:22;;;;;;;9.80;2.88;;;;;;;;;;10378020;28;20030;-78
2024/01/23 10:25:29;;;;;;;7.13;2.70;;;;;;;;;;10380873;28;20026;-80
2024/01/23 10:30:54;;;;;;;9.63;3.08;;;;;;;;;;10380351;28;20034;-79
2024/01/23 10:35:56;;;;;;;8.65;2.88;;;;;;;;;;10381107;28;20551;-80
2024/01/23 10:40:57;;;;;;;10.75;2.95;;;;;;;;;;10381332;28;20517;-79
2024/01/23 10:45:59;;;;;;;8.02;2.75;;;;;;;;;;10381362;28;20034;-79
2024/01/23 10:51:19;;;;;;;8.38;2.53;;;;;;;;;;10379683;28;20033;-79
2024/01/23 10:56:22;;;;;;;11.07;3.25;;;;;;;;;;10381980;28;20117;-80
2024/01/23 11:01:23;;;;;;;11.18;2.67;;;;;;;;;;10380435;28;20085;-79
2024/01/23 11:06:27;;;;;;;8.63;2.88;;;;;;;;;;10380094;28;20029;-79
2024/01/23 11:11:49;;;;;;;9.52;2.85;;;;;;;;;;10379623;28;20026;-80
2024/01/23 11:17:02;;;;;;;11.43;3.13;;;;;;;;;;10380494;28;20037;-81
2024/01/23 11:22:03;;;;;;;8.57;2.83;;;;;;;;;;10381455;28;20030;-79
2024/01/23 11:27:04;;;;;;;;;;;;;;;;;;10382573;28;20385;-78
2024/01/23 11:32:23;;;;;;;11.77;3.35;;;;;;;;;;10393298;28;19919;-81
2024/01/23 11:37:43;;;;;;;14.38;3.40;;;;;;;;;;10394225;28;20417;-81
2024/01/23 11:42:44;;;;;;;9.63;3.22;;;;;;;;;;10394628;28;20034;-82
2024/01/23 11:47:46;;;;;;;10.18;3.17;;;;;;;;;;10393914;28;20089;-80
2024/01/23 11:52:47;;;;;;;;;;;;;;;;;;10396473;28;20033;-81
2024/01/23 11:57:52;;;;;;;8.18;3.20;;;;;;;;;;10396756;28;20285;-81
2024/01/23 12:02:54;;;;;;;9.95;3.13;;;;;;;;;;10388701;28;20034;-79
2024/01/23 12:08:11;;;;;;;13.60;4.07;;;;;;;;;;10387597;28;20049;-81
2024/01/23 12:13:23;;;;;;;8.70;2.60;;;;;;;;;;10390499;28;20057;-80
2024/01/23 12:18:25;;;;;;;7.28;2.53;;;;;;;;;;10389569;28;20022;-79
2024/01/23 12:23:26;;;;;;;11.38;3.15;;;;;;;;;;10389921;28;20371;-80
2024/01/23 12:28:29;;;;;;;12.68;2.80;;;;;;;;;;10388018;28;20026;-80
2024/01/23 12:33:41;;;;;;;8.68;2.45;;;;;;;;;;10385696;28;20026;-80
2024/01/23 12:38:42;;;;;;;12.02;3.42;;;;;;;;;;10385280;28;20026;-79
2024/01/23 12:43:50;;;;;;;9.23;3.10;;;;;;;;;;10384308;28;20041;-80
2024/01/23 12:48:52;;;;;;;12.90;3.30;;;;;;;;;;10394526;28;20025;-79
2024/01/23 12:53:59;;;;;;;13.15;3.28;;;;;;;;;;10405561;28;20076;-82
2024/01/23 12:59:00;;;;;;;10.77;3.67;;;;;;;;;;10398543;28;20052;-82
2024/01/23 13:04:01;;;;;;;10.93;3.47;;;;;;;;;;10391824;28;20026;-82
2024/01/23 13:09:08;;;;;;;10.23;3.20;;;;;;;;;;10416607;28;20041;-83
2024/01/23 13:14:10;;;;;;;11.98;3.53;;;;;;;;;;10394418;28;20381;-83
2024/01/23 13:19:11;;;;;;;8.00;3.08;;;;;;;;;;10395241;28;20022;-82
2024/01/23 13:24:18;;;;;;;11.80;3.25;;;;;;;;;;10396301;28;20094;-81
2024/01/23 13:29:20;;;;;;;9.38;2.90;;;;;;;;;;10390644;28;20029;-82
2024/01/23 13:34:22;;;;;;;7.80;2.45;;;;;;;;;;10388891;28;20022;-82
2024/01/23 13:39:25;;;;;;;8.35;2.22;;;;;;;;;;10389577;28;20542;-82
2024/01/23 13:44:28;;;;;;;10.48;3.20;;;;;;;;;;10390246;28;20028;-82
2024/01/23 13:49:29;;;;;;;12.70;2.95;;;;;;;;;;10394579;28;20113;-82
2024/01/23 13:54:30;;;;;;;;;;;;;;;;;;10389798;28;20030;-82
2024/01/23 13:59:31;;;;;;;10.10;2.45;;;;;;;;;;10390178;28;19906;-79
2024/01/23 14:04:34;;;;;;;15.15;3.90;;;;;;;;;;10389622;28;20381;-79
2024/01/23 14:09:36;;;;;;;12.10;3.38;;;;;;;;;;10389976;28;20164;-83
2024/01/23 14:14:38;;;;;;;15.15;3.63;;;;;;;;;;10389686;28;20194;-81
2024/01/23 14:19:39;;;;;;;11.30;2.85;;;;;;;;;;10390500;28;20017;-81
2024/01/23 14:24:40;;;;;;;10.95;2.78;;;;;;;;;;10388289;28;20030;-80
2024/01/23 14:29:41;;;;;;;8.98;3.15;;;;;;;;;;10387082;28;20375;-81
2024/01/23 14:34:42;;;;;;;12.98;3.63;;;;;;;;;;10383379;28;20058;-80
2024/01/23 14:39:43;;;;;;;13.52;3.42;;;;;;;;;;10381838;28;20034;-80
2024/01/23 14:44:44;;;;;;;17.45;3.80;;;;;;;;;;10378555;28;20101;-78
2024/01/23 14:49:45;;;;;;;11.73;3.20;;;;;;;;;;10380089;28;20030;-79
2024/01/23 14:54:46;;;;;;;11.50;2.78;;;;;;;;;;10378459;28;20025;-81
2024/01/23 14:59:47;;;;;;;12.18;2.92;;;;;;;;;;10380510;28;20030;-82
2024/01/23 15:04:48;;;;;;;;;;;;;;;;;;10386549;28;20473;-79
2024/01/23 15:09:49;;;;;;;10.30;2.92;;;;;;;;;;10388083;28;19992;-79
2024/01/23 15:14:50;;;;;;;;;;;;;;;;;;10385487;28;20427;-78
2024/01/23 15:19:52;;;;;;;8.32;2.40;;;;;;;;;;10386902;28;19905;-78
2024/01/23 15:24:53;;;;;;;15.77;4.00;;;;;;;;;;10387820;28;20173;-79
2024/01/23 15:29:54;;;;;;;;;;;;;;;;;;10388863;28;20026;-78
2024/01/23 15:34:55;;;;;;;9.88;3.13;;;;;;;;;;10392588;28;19905;-78
2024/01/23 15:39:56;;;;;;;13.98;3.83;;;;;;;;;;10388861;28;20030;-78
2024/01/23 15:44:57;;;;;;;6.78;2.67;;;;;;;;;;10390804;28;20034;-80
2024/01/23 15:49:58;;;;;;;12.55;3.65;;;;;;;;;;10392129;28;20132;-80
2024/01/23 15:54:59;;;;;;;8.48;2.47;;;;;;;;;;10389929;28;20402;-80
2024/01/23 16:00:02;;;;;;;13.75;3.55;;;;;;;;;;10390819;28;20493;-79
2024/01/23 16:05:04;;;;;;;9.30;3.00;;;;;;;;;;10391715;28;20034;-80
2024/01/23 16:10:04;;;;;;;;;;;;;;;;;;10386751;28;20069;-79
2024/01/23 16:15:06;;;;;;;7.97;2.65;;;;;;;;;;10387332;28;19906;-80
2024/01/23 16:20:08;;;;;;;12.38;3.33;;;;;;;;;;10388041;28;20026;-80
2024/01/23 16:25:09;;;;;;;10.70;3.55;;;;;;;;;;10398935;28;20048;-78
2024/01/23 16:30:10;;;;;;;;;;;;;;;;;;10428330;28;20046;-79
2024/01/23 16:35:11;;;;;;;15.95;4.47;;;;;;;;;;10389523;28;19905;-81
2024/01/23 16:40:13;;;;;;;9.25;3.38;;;;;;;;;;10385471;28;20030;-80
2024/01/23 16:45:14;;;;;;;10.63;3.10;;;;;;;;;;10387236;28;20026;-83
2024/01/23 16:50:15;;;;;;;;;;;;;;;;;;10384595;28;20029;-78
2024/01/23 16:55:16;;;;;;;9.30;2.95;;;;;;;;;;10386057;28;19913;-79
2024/01/23 17:00:17;;;;;;;14.05;3.33;;;;;;;;;;10383871;28;20040;-80
2024/01/23 17:05:18;;;;;;;6.80;2.50;;;;;;;;;;10382285;28;20040;-79
2024/01/23 17:10:19;;;;;;;;;;;;;;;;;;10383663;28;20115;-79
2024/01/23 17:15:20;;;;;;;9.07;2.83;;;;;;;;;;10384232;28;20360;-79
2024/01/23 17:20:22;;;;;;;7.07;2.30;;;;;;;;;;10377097;28;20030;-76
2024/01/23 17:25:23;;;;;;;;;;;;;;;;;;10377160;28;20105;-78
2024/01/23 17:30:24;;;;;;;12.55;3.30;;;;;;;;;;10379400;28;19909;-78
2024/01/23 17:35:25;;;;;;;8.98;2.75;;;;;;;;;;10377959;28;20030;-78
2024/01/23 17:40:26;;;;;;;6.78;2.70;;;;;;;;;;10378957;28;20029;-78
2024/01/23 17:45:27;;;;;;;10.07;3.30;;;;;;;;;;10376708;28;20038;-78
2024/01/23 17:50:28;;;;;;;11.57;3.10;;;;;;;;;;10375897;28;20043;-78
2024/01/23 17:55:29;;;;;;;11.90;3.22;;;;;;;;;;10377052;28;20172;-78
2024/01/23 18:00:30;;;;;;;9.30;2.70;;;;;;;;;;10379154;28;20102;-78
2024/01/23 18:05:31;;;;;;;10.02;3.15;;;;;;;;;;10377997;28;20060;-78
2024/01/23 18:10:32;;;;;;;5.82;1.80;;;;;;;;;;10376857;28;20055;-78
2024/01/23 18:15:33;;;;;;;7.13;2.22;;;;;;;;;;10375415;28;20018;-78
2024/01/23 18:20:34;;;;;;;6.97;2.00;;;;;;;;;;10375318;28;20497;-78
2024/01/23 18:25:35;;;;;;;9.18;2.35;;;;;;;;;;10376290;28;20048;-80
2024/01/23 18:30:37;;;;;;;7.15;2.17;;;;;;;;;;10376615;28;20351;-77
2024/01/23 18:35:38;;;;;;;5.05;1.67;;;;;;;;;;10385051;28;20037;-78
2024/01/23 18:40:39;;;;;;;8.05;2.45;;;;;;;;;;10399804;28;20076;-78
2024/01/23 18:45:40;;;;;;;7.28;1.90;;;;;;;;;;10376046;28;20379;-78
2024/01/23 18:50:41;;;;;;;5.80;1.60;;;;;;;;;;10376322;28;20490;-78
2024/01/23 18:55:43;;;;;;;4.75;1.48;;;;;;;;;;10469887;22;20476;-85
2024/01/23 19:00:43;;;;;;;;;;;;;;;;;;10423752;28;20033;-85
2024/01/23 19:05:45;;;;;;;7.22;1.60;;;;;;;;;;10423554;28;19905;-84
2024/01/23 19:10:46;;;;;;;5.80;1.52;;;;;;;;;;10423221;28;20397;-83
2024/01/23 19:15:47;;;;;;;5.38;1.67;;;;;;;;;;10423566;28;20025;-83
2024/01/23 19:20:48;;;;;;;5.13;1.75;;;;;;;;;;10424346;28;20511;-84
2024/01/23 19:25:49;;;;;;;8.85;2.00;;;;;;;;;;10422086;28;20072;-84
2024/01/23 19:30:50;;;;;;;5.53;1.90;;;;;;;;;;10423060;28;20029;-85
2024/01/23 19:35:52;;;;;;;6.88;1.80;;;;;;;;;;10421716;28;20065;-83
2024/01/23 19:40:54;;;;;;;3.05;1.50;;;;;;;;;;10436500;28;20040;-83
2024/01/23 19:45:55;;;;;;;4.20;1.77;;;;;;;;;;10437493;28;20124;-83
2024/01/23 19:50:57;;;;;;;4.50;1.55;;;;;;;;;;10435553;28;20396;-84
2024/01/23 19:55:58;;;;;;;5.70;2.20;;;;;;;;;;10434218;28;20092;-84
2024/01/23 20:00:59;;;;;;;4.20;1.85;;;;;;;;;;10435607;28;20028;-84
2024/01/23 20:06:00;;;;;;;5.35;1.73;;;;;;;;;;10435634;28;20021;-84
